Time;durP1;ratioP1;P1;durP2;ratioP2;P2;SDS_P1;SDS_P2;PMS_P1;PMS_P2;Temp;Humidity;BMP_temperature;BMP_pressure;BME280_temperature;BME280_humidity;BME280_pressure;Samples;Min_cycle;Max_cycle;Signal;HPM_P1;HPM_P2
2021/11/15 00:02:10;;;;;;;58.65;31.55;;;6.60;99.90;;;;;;5066241;28;20111;-54
2021/11/15 00:04:37;;;;;;;57.13;29.52;;;6.60;99.90;;;;;;5032822;28;20025;-54
2021/11/15 00:07:03;;;;;;;56.85;29.60;;;6.60;99.90;;;;;;5059063;28;20053;-54
2021/11/15 00:09:29;;;;;;;58.28;29.13;;;6.60;99.90;;;;;;5052764;28;20082;-57
2021/11/15 00:11:55;;;;;;;49.88;27.52;;;6.60;99.90;;;;;;5067217;28;20037;-54
2021/11/15 00:14:20;;;;;;;62.53;29.15;;;6.60;99.90;;;;;;5051535;28;20033;-56
2021/11/15 00:16:47;;;;;;;63.40;32.13;;;6.60;99.90;;;;;;5059662;28;20025;-54
2021/11/15 00:19:12;;;;;;;54.22;28.67;;;6.60;99.90;;;;;;5049881;28;20729;-54
2021/11/15 00:21:38;;;;;;;59.47;30.35;;;6.60;99.90;;;;;;5068178;28;20036;-57
2021/11/15 00:24:04;;;;;;;57.17;31.27;;;6.60;99.90;;;;;;5052941;28;20102;-56
2021/11/15 00:26:30;;;;;;;53.50;28.95;;;6.60;99.90;;;;;;5042963;28;20051;-53
2021/11/15 00:28:56;;;;;;;55.25;29.02;;;6.60;99.90;;;;;;5053587;28;20028;-54
2021/11/15 00:31:24;;;;;;;55.88;28.83;;;6.60;99.90;;;;;;5066380;28;20028;-55
2021/11/15 00:33:50;;;;;;;50.92;27.58;;;6.60;99.90;;;;;;5066749;28;20028;-55
2021/11/15 00:36:15;;;;;;;57.50;29.40;;;6.60;99.90;;;;;;5050570;28;20021;-56
2021/11/15 00:38:41;;;;;;;60.65;29.52;;;6.60;99.90;;;;;;5060908;28;20078;-56
2021/11/15 00:41:07;;;;;;;55.15;26.88;;;6.60;99.90;;;;;;5056422;28;20017;-53
2021/11/15 00:43:32;;;;;;;57.38;29.58;;;6.50;99.90;;;;;;5065261;28;20024;-54
2021/11/15 00:45:58;;;;;;;60.22;29.80;;;6.50;99.90;;;;;;5066731;28;20403;-52
2021/11/15 00:48:24;;;;;;;55.95;28.48;;;6.50;99.90;;;;;;5067688;28;20101;-56
2021/11/15 00:50:50;;;;;;;57.22;28.98;;;6.50;99.90;;;;;;5052185;28;20033;-56
2021/11/15 00:53:16;;;;;;;51.05;27.60;;;6.60;99.90;;;;;;5047947;28;20032;-54
2021/11/15 00:55:42;;;;;;;56.75;28.13;;;6.50;99.90;;;;;;5060329;28;20024;-56
2021/11/15 00:58:07;;;;;;;54.67;28.98;;;6.50;99.90;;;;;;5047926;28;20047;-57
2021/11/15 01:00:38;;;;;;;54.42;27.63;;;6.50;99.90;;;;;;5060842;28;20036;-52
2021/11/15 01:03:07;;;;;;;55.80;28.83;;;6.50;99.90;;;;;;5055954;28;20029;-52
2021/11/15 01:05:35;;;;;;;54.50;28.98;;;6.50;99.90;;;;;;5068189;28;20027;-53
2021/11/15 01:08:01;;;;;;;51.97;28.05;;;6.50;99.90;;;;;;5055736;28;20122;-57
2021/11/15 01:10:26;;;;;;;50.58;28.50;;;6.50;99.90;;;;;;5058198;28;20025;-55
2021/11/15 01:12:52;;;;;;;56.25;29.90;;;6.50;99.90;;;;;;5063293;28;20051;-52
2021/11/15 01:15:22;;;;;;;59.03;28.05;;;6.50;99.90;;;;;;5056462;28;20064;-52
2021/11/15 01:17:48;;;;;;;52.15;28.23;;;6.50;99.90;;;;;;5059013;28;20097;-53
2021/11/15 01:20:16;;;;;;;55.65;29.55;;;6.50;99.90;;;;;;5058737;28;20024;-54
2021/11/15 01:22:42;;;;;;;53.88;27.63;;;6.50;99.90;;;;;;5044775;28;20021;-56
2021/11/15 01:25:09;;;;;;;56.28;28.30;;;6.50;99.90;;;;;;5060693;28;20025;-54
2021/11/15 01:27:36;;;;;;;58.85;29.17;;;6.50;99.90;;;;;;5068371;28;20063;-54
2021/11/15 01:30:03;;;;;;;61.45;30.60;;;6.50;99.90;;;;;;5051714;28;20052;-54
2021/11/15 01:32:29;;;;;;;55.72;30.73;;;6.50;99.90;;;;;;5052108;28;20017;-55
2021/11/15 01:34:55;;;;;;;53.47;28.58;;;6.50;99.90;;;;;;5052163;28;20071;-52
2021/11/15 01:37:21;;;;;;;53.60;28.67;;;6.40;99.90;;;;;;5034259;28;20013;-53
2021/11/15 01:39:47;;;;;;;65.70;30.17;;;6.40;99.90;;;;;;5051691;28;20020;-57
2021/11/15 01:42:13;;;;;;;55.65;30.52;;;6.40;99.90;;;;;;5072194;28;20116;-52
2021/11/15 01:44:38;;;;;;;51.63;27.52;;;6.50;99.90;;;;;;5072018;28;20028;-54
2021/11/15 01:47:05;;;;;;;64.18;31.35;;;6.40;99.90;;;;;;5063102;28;20052;-51
2021/11/15 01:49:30;;;;;;;56.08;30.83;;;6.50;99.90;;;;;;5058295;28;20033;-54
2021/11/15 01:51:56;;;;;;;54.05;29.05;;;6.40;99.90;;;;;;5052101;28;20411;-53
2021/11/15 01:54:22;;;;;;;59.45;32.05;;;6.40;99.90;;;;;;5058304;28;20035;-54
2021/11/15 01:56:51;;;;;;;59.33;30.77;;;6.50;99.90;;;;;;5071441;28;20044;-57
2021/11/15 01:59:18;;;;;;;55.78;29.15;;;6.40;99.90;;;;;;5052790;28;20029;-52
2021/11/15 02:01:44;;;;;;;60.20;29.30;;;6.40;99.90;;;;;;5058792;28;20057;-53
2021/11/15 02:04:09;;;;;;;59.03;28.38;;;6.40;99.90;;;;;;5064113;28;20156;-53
2021/11/15 02:06:36;;;;;;;56.25;27.95;;;6.40;99.90;;;;;;5032962;28;20405;-56
2021/11/15 02:09:03;;;;;;;56.15;28.48;;;6.40;99.90;;;;;;5046040;28;20035;-51
2021/11/15 02:11:29;;;;;;;50.97;28.33;;;6.40;99.90;;;;;;5069639;28;20051;-54
2021/11/15 02:13:55;;;;;;;55.17;28.00;;;6.50;99.90;;;;;;5066522;28;20109;-57
2021/11/15 02:16:20;;;;;;;57.85;28.23;;;6.50;99.90;;;;;;5037186;28;20025;-55
2021/11/15 02:18:49;;;;;;;58.25;28.73;;;6.40;99.90;;;;;;5054806;28;20029;-50
2021/11/15 02:21:15;;;;;;;57.30;28.80;;;6.40;99.90;;;;;;5056327;28;20094;-51
2021/11/15 02:23:43;;;;;;;55.00;29.17;;;6.40;99.90;;;;;;5069189;28;20507;-57
2021/11/15 02:26:11;;;;;;;54.58;28.30;;;6.40;99.90;;;;;;5050720;28;20056;-54
2021/11/15 02:28:40;;;;;;;59.30;28.63;;;6.40;99.90;;;;;;5045516;28;20032;-53
2021/11/15 02:31:07;;;;;;;55.60;29.58;;;6.40;99.90;;;;;;5065906;28;20502;-52
2021/11/15 02:33:34;;;;;;;53.05;28.00;;;6.40;99.90;;;;;;5051510;28;20028;-54
2021/11/15 02:36:00;;;;;;;53.47;28.30;;;6.40;99.90;;;;;;5066732;28;20036;-52
2021/11/15 02:38:27;;;;;;;54.63;27.25;;;6.40;99.90;;;;;;5058768;28;20028;-51
2021/11/15 02:40:53;;;;;;;57.80;28.17;;;6.40;99.90;;;;;;5056240;28;20497;-51
2021/11/15 02:43:19;;;;;;;57.05;29.15;;;6.30;99.90;;;;;;5067840;28;20113;-53
2021/11/15 02:45:45;;;;;;;49.78;27.40;;;6.40;99.90;;;;;;5050753;28;20209;-54
2021/11/15 02:48:10;;;;;;;52.47;29.40;;;6.30;99.90;;;;;;5051794;28;20086;-54
2021/11/15 02:50:36;;;;;;;55.60;29.73;;;6.30;99.90;;;;;;5065948;28;20377;-51
2021/11/15 02:53:07;;;;;;;54.38;29.52;;;6.30;99.90;;;;;;5051643;28;20044;-55
2021/11/15 02:55:33;;;;;;;53.42;29.08;;;6.30;99.90;;;;;;5065494;28;20111;-51
2021/11/15 02:58:01;;;;;;;55.05;27.90;;;6.30;99.90;;;;;;5067875;28;20036;-51
2021/11/15 03:00:41;;;;;;;56.45;29.42;;;6.30;99.90;;;;;;5036278;28;20039;-52
2021/11/15 03:03:09;;;;;;;57.13;30.45;;;6.30;99.90;;;;;;5068769;28;20036;-51
2021/11/15 03:05:36;;;;;;;57.50;29.45;;;6.30;99.90;;;;;;5070378;28;20056;-51
2021/11/15 03:08:04;;;;;;;58.85;30.92;;;6.30;99.90;;;;;;5055533;28;20037;-56
2021/11/15 03:10:30;;;;;;;64.78;32.08;;;6.20;99.90;;;;;;5051819;28;20029;-55
2021/11/15 03:12:57;;;;;;;63.10;31.52;;;6.20;99.90;;;;;;5067941;28;20029;-57
2021/11/15 03:15:32;;;;;;;65.38;31.13;;;6.20;99.90;;;;;;5055700;28;20033;-55
2021/11/15 03:18:13;;;;;;;62.95;30.63;;;6.20;99.90;;;;;;5050946;28;20017;-53
2021/11/15 03:20:44;;;;;;;61.55;30.92;;;6.20;99.90;;;;;;5053371;28;20047;-56
2021/11/15 03:23:12;;;;;;;67.88;32.30;;;6.20;99.90;;;;;;5058040;28;20017;-56
2021/11/15 03:25:39;;;;;;;64.93;31.50;;;6.20;99.90;;;;;;5038984;28;20032;-56
2021/11/15 03:28:07;;;;;;;68.95;31.25;;;6.20;99.90;;;;;;5054571;28;20035;-56
2021/11/15 03:30:33;;;;;;;68.45;33.00;;;6.20;99.90;;;;;;5051900;28;20036;-56
2021/11/15 03:32:59;;;;;;;65.07;31.65;;;6.20;99.90;;;;;;5069698;28;20590;-53
2021/11/15 03:35:25;;;;;;;68.15;32.35;;;6.20;99.90;;;;;;5069587;28;20017;-57
2021/11/15 03:37:51;;;;;;;70.35;32.08;;;6.20;99.90;;;;;;5069502;28;20020;-53
2021/11/15 03:40:24;;;;;;;65.72;32.38;;;6.20;99.90;;;;;;5060824;28;20024;-55
2021/11/15 03:42:51;;;;;;;70.00;32.85;;;6.20;99.90;;;;;;5054186;28;20029;-54
2021/11/15 03:45:17;;;;;;;66.72;30.15;;;6.20;99.90;;;;;;5049918;28;20032;-56
2021/11/15 03:47:44;;;;;;;64.40;31.95;;;6.20;99.90;;;;;;5060802;28;20028;-54
2021/11/15 03:50:10;;;;;;;66.40;31.85;;;6.10;99.90;;;;;;5052828;28;20021;-57
2021/11/15 03:52:37;;;;;;;71.38;32.58;;;6.20;99.90;;;;;;5053737;28;20044;-56
2021/11/15 03:55:05;;;;;;;68.25;31.63;;;6.10;99.90;;;;;;5055635;28;20025;-52
2021/11/15 03:57:30;;;;;;;70.82;31.95;;;6.20;99.90;;;;;;5049982;28;20063;-53
2021/11/15 03:59:56;;;;;;;68.93;31.48;;;6.10;99.90;;;;;;5059987;28;20075;-53
2021/11/15 04:02:25;;;;;;;71.63;32.42;;;6.10;99.90;;;;;;5054555;28;20029;-54
2021/11/15 04:04:58;;;;;;;63.72;31.30;;;6.10;99.90;;;;;;5060892;28;20484;-53
2021/11/15 04:07:33;;;;;;;67.72;31.77;;;6.10;99.90;;;;;;5049294;28;20053;-51
2021/11/15 04:10:02;;;;;;;68.15;33.08;;;6.10;99.90;;;;;;5060477;28;20055;-56
2021/11/15 04:12:29;;;;;;;63.85;31.48;;;6.10;99.90;;;;;;5063283;28;20405;-54
2021/11/15 04:14:54;;;;;;;65.93;30.55;;;6.10;99.90;;;;;;5050126;28;20108;-53
2021/11/15 04:17:21;;;;;;;71.50;32.72;;;6.10;99.90;;;;;;5067626;28;20158;-56
2021/11/15 04:19:49;;;;;;;67.10;33.25;;;6.10;99.90;;;;;;5057761;28;20025;-53
2021/11/15 04:22:15;;;;;;;73.25;33.92;;;6.00;99.90;;;;;;5049398;28;20488;-52
2021/11/15 04:24:40;;;;;;;67.50;31.88;;;6.00;99.90;;;;;;5049370;28;20039;-56
2021/11/15 04:27:07;;;;;;;68.95;31.05;;;6.00;99.90;;;;;;5062877;28;20024;-53
2021/11/15 04:29:34;;;;;;;70.30;31.58;;;6.00;99.90;;;;;;5059827;28;20163;-54
2021/11/15 04:31:59;;;;;;;65.43;30.38;;;6.00;99.90;;;;;;5048718;28;20025;-54
2021/11/15 04:34:25;;;;;;;63.35;30.67;;;6.10;99.90;;;;;;5048138;28;20040;-56
2021/11/15 04:36:51;;;;;;;69.07;32.10;;;6.10;99.90;;;;;;5049048;28;20083;-57
2021/11/15 04:39:16;;;;;;;66.18;30.77;;;6.00;99.90;;;;;;5049615;28;20025;-54
2021/11/15 04:41:42;;;;;;;69.70;32.22;;;6.00;99.90;;;;;;5048498;28;20449;-54
2021/11/15 04:44:07;;;;;;;59.97;29.98;;;6.00;99.90;;;;;;5047938;28;20106;-54
2021/11/15 04:46:33;;;;;;;69.55;32.80;;;6.00;99.90;;;;;;5048534;28;20025;-54
2021/11/15 04:48:59;;;;;;;61.83;29.85;;;6.00;99.90;;;;;;5050967;28;20093;-55
2021/11/15 04:51:24;;;;;;;69.97;32.22;;;6.00;99.90;;;;;;5067864;28;20024;-56
2021/11/15 04:53:50;;;;;;;70.90;33.25;;;6.00;99.90;;;;;;5067820;28;20383;-52
2021/11/15 04:56:15;;;;;;;64.93;31.35;;;6.00;99.90;;;;;;5056924;28;20033;-52
2021/11/15 04:58:41;;;;;;;71.22;33.40;;;6.00;99.90;;;;;;5053010;28;20036;-55
2021/11/15 05:01:07;;;;;;;65.93;31.17;;;6.00;99.90;;;;;;5051493;28;20086;-54
2021/11/15 05:03:37;;;;;;;68.25;31.73;;;6.00;99.90;;;;;;5066472;28;20041;-56
2021/11/15 05:06:04;;;;;;;67.85;31.75;;;6.00;99.90;;;;;;5055903;28;20033;-51
2021/11/15 05:08:30;;;;;;;67.32;30.33;;;6.00;99.90;;;;;;5055218;28;20472;-55
2021/11/15 05:10:58;;;;;;;66.10;31.10;;;6.00;99.90;;;;;;5065797;28;20052;-57
2021/11/15 05:13:24;;;;;;;65.40;31.45;;;6.00;99.90;;;;;;5056327;28;20033;-53
2021/11/15 05:15:49;;;;;;;75.47;32.45;;;6.00;99.90;;;;;;5048482;28;20025;-54
2021/11/15 05:18:15;;;;;;;68.70;33.08;;;6.00;99.90;;;;;;5048601;28;20497;-54
2021/11/15 05:20:41;;;;;;;61.50;31.35;;;6.00;99.90;;;;;;5060175;28;20439;-56
2021/11/15 05:23:07;;;;;;;62.30;31.25;;;6.00;99.90;;;;;;5047976;28;20033;-52
2021/11/15 05:25:33;;;;;;;67.80;31.23;;;6.00;99.90;;;;;;5061799;28;20130;-56
2021/11/15 05:27:59;;;;;;;62.85;30.33;;;6.00;99.90;;;;;;5055693;28;20037;-56
2021/11/15 05:30:24;;;;;;;63.42;29.83;;;6.00;99.90;;;;;;5067574;28;20033;-57
2021/11/15 05:32:51;;;;;;;56.88;28.83;;;6.00;99.90;;;;;;5061398;28;20037;-52
2021/11/15 05:35:18;;;;;;;57.20;29.33;;;6.00;99.90;;;;;;5030549;28;20377;-57
2021/11/15 05:37:44;;;;;;;52.20;28.42;;;5.90;99.90;;;;;;5048443;28;20687;-52
2021/11/15 05:40:11;;;;;;;57.92;28.73;;;6.00;99.90;;;;;;5047983;28;20095;-57
2021/11/15 05:42:37;;;;;;;63.60;28.02;;;5.90;99.90;;;;;;5048246;28;20032;-56
2021/11/15 05:45:07;;;;;;;48.58;26.40;;;5.90;99.90;;;;;;5053881;28;20533;-56
2021/11/15 05:47:32;;;;;;;54.22;27.95;;;5.90;99.90;;;;;;5067766;28;20035;-53
2021/11/15 05:49:58;;;;;;;58.92;29.77;;;5.90;99.90;;;;;;5067961;28;20028;-56
2021/11/15 05:52:24;;;;;;;61.33;29.20;;;5.90;99.90;;;;;;5068037;28;20036;-56
2021/11/15 05:54:51;;;;;;;57.70;27.02;;;5.80;99.90;;;;;;5067611;28;20120;-56
2021/11/15 05:57:17;;;;;;;53.70;27.48;;;5.80;99.90;;;;;;5067454;28;20028;-54
2021/11/15 05:59:43;;;;;;;48.53;26.98;;;5.80;99.90;;;;;;5049339;28;20052;-55
2021/11/15 06:02:09;;;;;;;52.60;25.45;;;5.80;99.90;;;;;;5049861;28;20063;-55
2021/11/15 06:04:35;;;;;;;50.60;25.70;;;5.80;99.90;;;;;;5067789;28;20036;-53
2021/11/15 06:07:01;;;;;;;47.08;27.50;;;5.80;99.90;;;;;;5042529;28;20048;-56
2021/11/15 06:09:26;;;;;;;50.38;25.60;;;5.80;99.90;;;;;;5033102;28;20511;-53
2021/11/15 06:11:52;;;;;;;47.88;25.55;;;5.80;99.90;;;;;;5056253;28;20106;-56
2021/11/15 06:14:18;;;;;;;49.67;24.98;;;5.80;99.90;;;;;;5045385;28;20108;-56
2021/11/15 06:16:43;;;;;;;46.40;24.27;;;5.80;99.90;;;;;;5066287;28;20068;-53
2021/11/15 06:19:09;;;;;;;48.45;25.50;;;5.80;99.90;;;;;;5051340;28;20108;-55
2021/11/15 06:21:34;;;;;;;47.50;25.30;;;5.80;99.90;;;;;;5045231;28;20048;-55
2021/11/15 06:24:01;;;;;;;46.63;24.88;;;5.80;99.90;;;;;;5032959;28;20515;-57
2021/11/15 06:26:28;;;;;;;53.25;26.30;;;5.80;99.90;;;;;;5045398;28;20123;-55
2021/11/15 06:28:54;;;;;;;54.88;27.65;;;5.80;99.90;;;;;;5052488;28;20112;-55
2021/11/15 06:31:20;;;;;;;47.75;25.55;;;5.80;99.90;;;;;;5066746;28;20035;-57
2021/11/15 06:33:49;;;;;;;49.67;27.23;;;5.80;99.90;;;;;;5060783;28;20048;-54
2021/11/15 06:36:16;;;;;;;52.25;25.63;;;5.80;99.90;;;;;;5068258;28;20028;-55
2021/11/15 06:38:41;;;;;;;49.70;25.02;;;5.80;99.90;;;;;;5047939;28;20139;-54
2021/11/15 06:41:10;;;;;;;44.65;26.45;;;5.80;99.90;;;;;;5052162;28;20738;-58
2021/11/15 06:43:35;;;;;;;45.45;24.75;;;5.80;99.90;;;;;;5051623;28;20036;-57
2021/11/15 06:46:01;;;;;;;52.30;25.88;;;5.80;99.90;;;;;;5049660;28;20082;-54
2021/11/15 06:48:30;;;;;;;50.92;27.17;;;5.80;99.90;;;;;;5054251;28;20021;-56
2021/11/15 06:50:55;;;;;;;55.50;25.13;;;5.80;99.90;;;;;;5071132;28;20555;-56
2021/11/15 06:53:21;;;;;;;46.40;24.27;;;5.80;99.90;;;;;;5066069;28;20155;-55
2021/11/15 06:55:47;;;;;;;57.45;28.98;;;5.80;99.90;;;;;;5054529;28;20452;-53
2021/11/15 06:58:12;;;;;;;49.85;27.08;;;5.80;99.90;;;;;;5048673;28;20017;-54
2021/11/15 07:00:38;;;;;;;47.92;26.88;;;5.80;99.90;;;;;;5067297;28;20103;-56
2021/11/15 07:03:03;;;;;;;45.88;26.40;;;5.80;99.90;;;;;;5069142;28;20436;-51
2021/11/15 07:05:29;;;;;;;41.90;23.92;;;5.80;99.90;;;;;;5058309;28;20508;-54
2021/11/15 07:07:55;;;;;;;47.15;26.50;;;5.80;99.90;;;;;;5049144;28;20086;-52
2021/11/15 07:10:21;;;;;;;47.67;25.40;;;5.80;99.90;;;;;;5069872;28;20112;-53
2021/11/15 07:12:47;;;;;;;50.78;25.08;;;5.80;99.90;;;;;;5070236;28;20036;-54
2021/11/15 07:15:15;;;;;;;45.28;25.02;;;5.80;99.90;;;;;;5068716;28;20025;-52
2021/11/15 07:17:41;;;;;;;52.65;26.75;;;5.80;99.90;;;;;;5052340;28;20016;-57
2021/11/15 07:20:07;;;;;;;48.22;25.73;;;5.80;99.90;;;;;;5068267;28;20087;-55
2021/11/15 07:22:33;;;;;;;46.22;24.65;;;5.80;99.90;;;;;;5049328;28;20016;-50
2021/11/15 07:24:59;;;;;;;40.30;23.70;;;5.80;99.90;;;;;;5050966;28;20033;-55
2021/11/15 07:27:25;;;;;;;41.55;24.27;;;5.80;99.90;;;;;;5049230;28;20048;-53
2021/11/15 07:29:51;;;;;;;41.58;24.73;;;5.80;99.90;;;;;;5064675;28;20491;-54
2021/11/15 07:32:17;;;;;;;43.20;24.48;;;5.80;99.90;;;;;;5063976;28;20101;-58
2021/11/15 07:34:43;;;;;;;43.53;24.58;;;5.80;99.90;;;;;;5058559;28;20078;-53
2021/11/15 07:37:09;;;;;;;45.55;24.92;;;5.90;99.90;;;;;;5069691;28;20020;-55
2021/11/15 07:39:43;;;;;;;46.45;25.00;;;5.90;99.90;;;;;;5067968;28;20542;-56
2021/11/15 07:42:13;;;;;;;44.33;25.20;;;5.90;99.90;;;;;;5050882;28;20044;-55
2021/11/15 07:44:40;;;;;;;40.25;22.23;;;5.90;99.90;;;;;;5063001;28;20029;-54
2021/11/15 07:47:06;;;;;;;40.58;22.45;;;5.90;99.90;;;;;;5036232;28;20066;-52
2021/11/15 07:49:33;;;;;;;42.85;25.67;;;5.90;99.90;;;;;;5048945;28;20104;-55
2021/11/15 07:51:59;;;;;;;46.10;25.42;;;5.90;99.90;;;;;;5031379;28;20025;-51
2021/11/15 07:54:25;;;;;;;45.63;24.77;;;6.00;99.90;;;;;;5050367;28;20032;-53
2021/11/15 07:56:51;;;;;;;41.42;24.67;;;6.00;99.90;;;;;;5068295;28;20032;-54
2021/11/15 07:59:16;;;;;;;42.40;24.45;;;6.00;99.90;;;;;;5068998;28;20027;-55
2021/11/15 08:01:42;;;;;;;43.75;25.35;;;6.00;99.90;;;;;;5068734;28;20758;-55
2021/11/15 08:04:07;;;;;;;40.22;24.50;;;6.00;99.90;;;;;;5069157;28;20039;-56
2021/11/15 08:06:33;;;;;;;39.85;23.50;;;6.00;99.90;;;;;;5050836;28;20032;-57
2021/11/15 08:08:58;;;;;;;36.53;22.80;;;6.00;99.90;;;;;;5068241;28;20089;-54
2021/11/15 08:11:29;;;;;;;48.83;24.15;;;6.00;99.90;;;;;;5067763;28;20086;-54
2021/11/15 08:13:55;;;;;;;42.55;25.92;;;6.10;99.90;;;;;;5050896;28;20025;-55
2021/11/15 08:16:20;;;;;;;41.00;24.92;;;6.10;99.90;;;;;;5068924;28;20117;-54
2021/11/15 08:18:46;;;;;;;44.15;23.55;;;6.10;99.90;;;;;;5068548;28;20021;-55
2021/11/15 08:21:13;;;;;;;44.53;24.88;;;6.10;99.90;;;;;;5068877;28;20025;-57
2021/11/15 08:23:47;;;;;;;41.72;23.80;;;6.10;99.90;;;;;;5068636;28;20016;-57
2021/11/15 08:26:28;;;;;;;45.22;24.95;;;6.10;99.90;;;;;;5051958;28;20043;-54
2021/11/15 08:28:58;;;;;;;39.58;21.92;;;6.10;99.90;;;;;;5057868;28;20074;-55
2021/11/15 08:31:24;;;;;;;41.20;22.10;;;6.20;99.90;;;;;;5068679;28;20086;-54
2021/11/15 08:33:50;;;;;;;42.40;23.27;;;6.20;99.90;;;;;;5068011;28;20033;-55
2021/11/15 08:36:16;;;;;;;43.28;23.75;;;6.20;99.90;;;;;;5049869;28;20028;-56
2021/11/15 08:38:49;;;;;;;45.58;25.83;;;6.20;99.90;;;;;;5067315;28;20428;-54
2021/11/15 08:41:18;;;;;;;42.70;23.42;;;6.20;99.90;;;;;;5068783;28;20032;-57
2021/11/15 08:43:44;;;;;;;39.72;23.48;;;6.20;99.90;;;;;;5067069;28;20052;-54
2021/11/15 08:46:15;;;;;;;37.22;22.23;;;6.20;99.90;;;;;;5042500;28;20070;-56
2021/11/15 08:48:41;;;;;;;37.63;22.08;;;6.20;99.90;;;;;;5048958;28;20112;-58
2021/11/15 08:51:10;;;;;;;36.33;20.98;;;6.20;99.90;;;;;;5037449;28;20832;-55
2021/11/15 08:53:36;;;;;;;34.92;20.75;;;6.20;99.90;;;;;;5050241;28;20028;-54
2021/11/15 08:56:02;;;;;;;33.92;20.92;;;6.30;99.90;;;;;;5048148;28;20033;-55
2021/11/15 08:58:29;;;;;;;37.00;21.70;;;6.30;99.90;;;;;;5063458;28;20055;-53
2021/11/15 09:00:55;;;;;;;33.30;20.45;;;6.30;99.90;;;;;;5067974;28;20582;-53
2021/11/15 09:03:21;;;;;;;35.75;20.60;;;6.30;99.90;;;;;;5049850;28;20035;-55
2021/11/15 09:05:50;;;;;;;39.58;22.85;;;6.30;99.90;;;;;;5066334;28;20036;-53
2021/11/15 09:08:18;;;;;;;39.05;22.38;;;6.30;99.90;;;;;;5030361;28;20029;-55
2021/11/15 09:10:44;;;;;;;34.97;21.77;;;6.40;99.90;;;;;;5050857;28;20098;-57
2021/11/15 09:13:11;;;;;;;38.97;23.75;;;6.30;99.90;;;;;;5051439;28;20041;-52
2021/11/15 09:15:37;;;;;;;39.67;22.02;;;6.30;99.90;;;;;;5051878;28;20028;-52
2021/11/15 09:18:03;;;;;;;36.53;22.33;;;6.30;99.90;;;;;;5048585;28;20559;-53
2021/11/15 09:20:29;;;;;;;37.83;22.27;;;6.30;99.90;;;;;;5051661;28;20025;-56
2021/11/15 09:22:54;;;;;;;34.53;21.25;;;6.30;99.90;;;;;;5049310;28;20037;-57
2021/11/15 09:25:21;;;;;;;36.92;21.50;;;6.30;99.90;;;;;;5039761;28;20397;-55
2021/11/15 09:27:46;;;;;;;39.38;22.40;;;6.30;99.90;;;;;;5048809;28;20485;-55
2021/11/15 09:30:13;;;;;;;36.13;21.25;;;6.40;99.90;;;;;;5049724;28;20107;-55
2021/11/15 09:32:41;;;;;;;39.05;21.65;;;6.30;99.90;;;;;;5059301;28;20031;-55
2021/11/15 09:35:08;;;;;;;39.95;23.13;;;6.40;99.90;;;;;;5029629;28;20512;-55
2021/11/15 09:37:34;;;;;;;34.65;21.48;;;6.40;99.90;;;;;;5047802;28;20017;-56
2021/11/15 09:40:00;;;;;;;40.28;22.95;;;6.30;99.90;;;;;;5051360;28;20036;-52
2021/11/15 09:42:26;;;;;;;36.90;22.67;;;6.40;99.90;;;;;;5030181;28;20055;-54
2021/11/15 09:44:52;;;;;;;37.25;22.92;;;6.40;99.90;;;;;;5065033;28;20033;-54
2021/11/15 09:47:19;;;;;;;37.75;22.70;;;6.40;99.90;;;;;;5050683;28;20041;-55
2021/11/15 09:49:45;;;;;;;36.85;23.08;;;6.40;99.90;;;;;;5038241;28;20028;-53
2021/11/15 09:52:13;;;;;;;34.42;21.48;;;6.40;99.90;;;;;;5071979;28;20028;-54
2021/11/15 09:54:39;;;;;;;36.05;21.45;;;6.40;99.90;;;;;;5053690;28;20024;-53
2021/11/15 09:57:05;;;;;;;32.70;22.67;;;6.40;99.90;;;;;;5068985;28;20024;-56
2021/11/15 09:59:31;;;;;;;33.08;21.70;;;6.40;99.90;;;;;;5051311;28;20033;-52
2021/11/15 10:01:58;;;;;;;39.00;22.50;;;6.40;99.90;;;;;;5051842;28;20032;-53
2021/11/15 10:04:24;;;;;;;37.60;22.45;;;6.40;99.90;;;;;;5056648;28;20078;-55
2021/11/15 10:06:57;;;;;;;37.50;21.17;;;6.40;99.90;;;;;;5052717;28;20043;-52
2021/11/15 10:09:31;;;;;;;36.38;22.30;;;6.50;99.90;;;;;;5052397;28;20090;-58
2021/11/15 10:11:59;;;;;;;36.97;21.77;;;6.50;99.90;;;;;;5050813;28;20055;-54
2021/11/15 10:14:25;;;;;;;37.85;22.85;;;6.40;99.90;;;;;;5050755;28;20033;-51
2021/11/15 10:17:01;;;;;;;36.33;22.85;;;6.40;99.90;;;;;;5034108;28;20029;-56
2021/11/15 10:19:29;;;;;;;36.72;22.25;;;6.40;99.90;;;;;;5033285;28;20087;-53
2021/11/15 10:22:04;;;;;;;39.95;22.42;;;6.40;99.90;;;;;;5053201;28;20033;-51
2021/11/15 10:24:37;;;;;;;40.10;22.95;;;6.40;99.90;;;;;;5067153;28;20033;-56
2021/11/15 10:27:09;;;;;;;36.30;23.05;;;6.40;99.90;;;;;;5055280;28;20507;-55
2021/11/15 10:29:44;;;;;;;38.97;23.02;;;6.40;99.90;;;;;;5043523;28;20028;-55
2021/11/15 10:32:12;;;;;;;39.13;22.55;;;6.40;99.90;;;;;;5041052;28;20439;-51
2021/11/15 10:34:46;;;;;;;36.70;22.63;;;6.40;99.90;;;;;;5062129;28;20040;-54
2021/11/15 10:37:14;;;;;;;38.63;22.80;;;6.40;99.90;;;;;;5066483;28;20020;-56
2021/11/15 10:39:55;;;;;;;37.17;22.95;;;6.40;99.90;;;;;;5040205;28;20052;-56
2021/11/15 10:42:24;;;;;;;34.95;22.45;;;6.40;99.90;;;;;;5051808;28;20086;-51
2021/11/15 10:44:58;;;;;;;37.40;22.17;;;6.40;99.90;;;;;;5050997;28;20385;-55
2021/11/15 10:47:45;;;;;;;39.58;22.08;;;6.40;99.90;;;;;;5033428;28;20163;-56
2021/11/15 10:50:32;;;;;;;39.38;23.65;;;6.40;99.90;;;;;;5051186;28;20100;-53
2021/11/15 10:53:14;;;;;;;39.97;22.00;;;6.40;99.90;;;;;;5050522;28;20090;-52
2021/11/15 10:56:05;;;;;;;38.53;21.80;;;6.40;99.90;;;;;;5058304;28;20055;-54
2021/11/15 10:58:38;;;;;;;39.03;21.80;;;6.40;99.90;;;;;;5061104;28;20041;-54
2021/11/15 11:01:05;;;;;;;37.72;23.52;;;6.40;99.90;;;;;;5041789;28;20028;-54
2021/11/15 11:03:32;;;;;;;42.60;23.05;;;6.40;99.90;;;;;;5069067;28;20037;-56
2021/11/15 11:06:03;;;;;;;36.88;22.17;;;6.40;99.90;;;;;;5060036;28;20416;-57
2021/11/15 11:08:37;;;;;;;37.80;21.05;;;6.40;99.90;;;;;;5049813;28;20074;-56
2021/11/15 11:11:08;;;;;;;35.72;22.45;;;6.40;99.90;;;;;;5059689;28;20028;-54
2021/11/15 11:13:42;;;;;;;33.53;21.63;;;6.40;99.90;;;;;;5069868;28;20036;-54
2021/11/15 11:16:09;;;;;;;38.17;22.33;;;6.40;99.90;;;;;;5069090;28;20040;-53
2021/11/15 11:18:38;;;;;;;39.20;23.77;;;6.40;99.90;;;;;;5062419;28;20025;-54
2021/11/15 11:21:28;;;;;;;34.80;21.90;;;6.40;99.90;;;;;;5050169;28;20017;-56
2021/11/15 11:26:39;;;;;;;40.58;22.50;;;6.40;99.90;;;;;;5050916;28;20029;-55
2021/11/15 11:29:10;;;;;;;40.22;22.05;;;6.40;99.90;;;;;;5064772;28;20023;-53
2021/11/15 11:31:37;;;;;;;39.08;21.77;;;6.40;99.90;;;;;;5069837;28;20025;-55
2021/11/15 11:34:03;;;;;;;38.25;21.98;;;6.40;99.90;;;;;;5063021;28;20032;-56
2021/11/15 11:36:29;;;;;;;42.03;22.90;;;6.40;99.90;;;;;;5054487;28;20767;-54
2021/11/15 11:38:55;;;;;;;40.72;22.35;;;6.40;99.90;;;;;;5051390;28;20572;-54
2021/11/15 11:41:21;;;;;;;37.53;20.92;;;6.40;99.90;;;;;;5051328;28;20029;-55
2021/11/15 11:43:48;;;;;;;41.97;22.42;;;6.40;99.90;;;;;;5061833;28;20031;-56
2021/11/15 11:46:20;;;;;;;34.03;21.60;;;6.40;99.90;;;;;;5060902;28;20373;-54
2021/11/15 11:48:52;;;;;;;41.25;23.33;;;6.40;99.90;;;;;;5049575;28;20669;-51
2021/11/15 11:51:19;;;;;;;37.35;23.58;;;6.40;99.90;;;;;;5056149;28;20056;-57
2021/11/15 11:53:45;;;;;;;38.45;21.70;;;6.40;99.90;;;;;;5055700;28;20025;-53
2021/11/15 11:56:29;;;;;;;38.20;21.42;;;6.40;99.90;;;;;;5067931;28;20043;-58
2021/11/15 11:59:15;;;;;;;38.58;20.25;;;6.40;99.90;;;;;;5069509;28;20052;-56
2021/11/15 12:01:54;;;;;;;39.55;22.13;;;6.40;99.90;;;;;;5070173;28;20112;-55
2021/11/15 12:04:20;;;;;;;40.63;22.42;;;6.40;99.90;;;;;;5069201;28;20020;-56
2021/11/15 12:06:47;;;;;;;37.80;22.20;;;6.40;99.90;;;;;;5068853;28;20031;-53
2021/11/15 12:09:16;;;;;;;38.33;21.88;;;6.40;99.90;;;;;;5068420;28;20103;-54
2021/11/15 12:11:45;;;;;;;35.13;20.20;;;6.40;99.90;;;;;;5069060;28;20047;-55
2021/11/15 12:14:15;;;;;;;42.40;21.38;;;6.40;99.90;;;;;;5068558;28;20028;-51
2021/11/15 12:17:02;;;;;;;32.13;20.80;;;6.40;99.90;;;;;;5068788;28;20027;-54
2021/11/15 12:19:46;;;;;;;;;;;6.40;99.90;;;;;;5069005;28;20032;-53
2021/11/15 12:22:15;;;;;;;38.35;20.92;;;6.40;99.90;;;;;;5068908;28;19995;-52
2021/11/15 12:25:06;;;;;;;37.67;21.08;;;6.40;99.90;;;;;;5068907;28;20070;-54
2021/11/15 12:28:01;;;;;;;37.40;22.20;;;6.50;99.90;;;;;;5068425;28;20391;-55
2021/11/15 12:30:42;;;;;;;35.13;20.02;;;6.50;99.90;;;;;;5066910;28;20102;-54
2021/11/15 12:33:18;;;;;;;35.92;20.25;;;6.50;99.90;;;;;;5048966;28;20070;-54
2021/11/15 12:36:08;;;;;;;37.58;21.25;;;6.50;99.90;;;;;;5047913;28;20103;-52
2021/11/15 12:39:00;;;;;;;33.75;19.95;;;6.50;99.90;;;;;;5068395;28;20565;-53
2021/11/15 12:41:28;;;;;;;36.50;22.45;;;6.50;99.90;;;;;;5062266;28;20025;-53
2021/11/15 12:44:20;;;;;;;32.47;19.27;;;6.50;99.90;;;;;;5049117;28;20020;-53
2021/11/15 12:47:11;;;;;;;33.58;20.30;;;6.50;99.90;;;;;;5047924;28;20068;-53